createdAt,value
2019-06-27T00:00:53.269Z,21.55
2019-06-27T00:03:24.671Z,21.57
2019-06-27T00:05:57.137Z,21.48
2019-06-27T00:08:28.612Z,21.44
2019-06-27T00:11:00.111Z,21.39
2019-06-27T00:13:32.120Z,21.30
2019-06-27T00:16:03.438Z,21.21
2019-06-27T00:18:34.923Z,21.18
2019-06-27T00:21:07.466Z,21.15
2019-06-27T00:23:38.894Z,21.24
2019-06-27T00:26:10.771Z,21.26
2019-06-27T00:28:42.363Z,21.21
2019-06-27T00:31:13.816Z,21.14
2019-06-27T00:33:45.401Z,21.13
2019-06-27T00:36:16.697Z,21.10
2019-06-27T00:38:47.948Z,21.15
2019-06-27T00:41:19.445Z,21.03
2019-06-27T00:43:51.370Z,21.19
2019-06-27T00:46:22.786Z,21.21
2019-06-27T00:48:54.110Z,21.18
2019-06-27T00:51:25.383Z,21.07
2019-06-27T00:53:57.196Z,21.03
2019-06-27T00:56:28.909Z,20.98
2019-06-27T00:59:00.196Z,20.91
2019-06-27T01:01:32.680Z,20.81
2019-06-27T01:04:04.069Z,20.83
2019-06-27T01:06:35.559Z,20.70
2019-06-27T01:09:08.462Z,20.68
2019-06-27T01:11:39.845Z,20.67
2019-06-27T01:14:11.461Z,20.63
2019-06-27T01:16:42.797Z,20.57
2019-06-27T01:19:14.548Z,20.60
2019-06-27T01:21:45.921Z,20.63
2019-06-27T01:24:17.255Z,20.75
2019-06-27T01:26:48.851Z,20.69
2019-06-27T01:29:20.241Z,20.69
2019-06-27T01:31:51.628Z,20.68
2019-06-27T01:34:23.079Z,20.64
2019-06-27T01:36:54.521Z,20.58
2019-06-27T01:39:26.229Z,20.56
2019-06-27T01:41:57.672Z,20.59
2019-06-27T01:44:49.505Z,20.58
2019-06-27T01:47:20.850Z,20.57
2019-06-27T01:49:52.203Z,20.49
2019-06-27T01:52:23.656Z,20.44
2019-06-27T01:54:55.107Z,20.44
2019-06-27T01:57:26.500Z,20.47
2019-06-27T01:59:58.009Z,20.48
2019-06-27T02:02:29.475Z,20.47
2019-06-27T02:05:00.906Z,20.50
2019-06-27T02:07:32.669Z,20.38
2019-06-27T02:10:04.949Z,20.28
2019-06-27T02:12:36.590Z,20.26
2019-06-27T02:15:08.779Z,20.16
2019-06-27T02:17:40.277Z,20.11
2019-06-27T02:20:12.674Z,20.05
2019-06-27T02:22:44.134Z,20.01
2019-06-27T02:25:17.666Z,20.05
2019-06-27T02:28:02.595Z,20.14
2019-06-27T02:30:37.105Z,20.08
2019-06-27T02:33:08.661Z,19.95
2019-06-27T02:35:40.466Z,20.00
2019-06-27T02:38:11.946Z,20.17
2019-06-27T02:40:43.413Z,20.15
2019-06-27T02:43:14.818Z,20.17
2019-06-27T02:45:46.608Z,20.23
2019-06-27T02:48:18.245Z,20.68
2019-06-27T02:50:49.751Z,20.92
2019-06-27T02:53:21.162Z,21.02
2019-06-27T02:55:52.656Z,21.10
2019-06-27T02:58:30.942Z,21.02
2019-06-27T03:00:58.946Z,20.92
2019-06-27T03:03:30.362Z,20.74
2019-06-27T03:06:02.122Z,20.67
2019-06-27T03:08:33.685Z,20.58
2019-06-27T03:11:05.439Z,20.45
2019-06-27T03:13:36.960Z,20.38
2019-06-27T03:16:08.459Z,20.36
2019-06-27T03:18:39.796Z,20.42
2019-06-27T03:21:11.271Z,20.37
2019-06-27T03:23:42.705Z,20.34
2019-06-27T03:26:14.322Z,20.33
2019-06-27T03:28:52.680Z,20.25
2019-06-27T03:31:19.651Z,20.32
2019-06-27T03:33:51.144Z,20.25
2019-06-27T03:36:23.905Z,20.22
2019-06-27T03:38:55.486Z,20.22
2019-06-27T03:41:26.936Z,20.26
2019-06-27T03:43:58.515Z,20.35
2019-06-27T03:46:29.876Z,20.41
2019-06-27T03:49:01.292Z,20.48
2019-06-27T03:51:32.886Z,20.50
2019-06-27T03:54:04.375Z,20.54
2019-06-27T03:56:35.933Z,20.75
2019-06-27T03:59:12.776Z,21.00
2019-06-27T04:01:40.952Z,21.25
2019-06-27T04:04:12.361Z,21.51
2019-06-27T04:06:44.222Z,21.50
2019-06-27T04:09:17.528Z,21.59
2019-06-27T04:11:49.044Z,21.71
2019-06-27T04:14:20.478Z,21.75
2019-06-27T04:16:51.905Z,21.89
2019-06-27T04:19:24.478Z,22.08
2019-06-27T04:21:56.165Z,22.11
2019-06-27T04:24:27.663Z,22.12
2019-06-27T04:26:59.213Z,22.12
2019-06-27T04:29:33.896Z,22.12
2019-06-27T04:32:03.926Z,22.17
2019-06-27T04:34:35.699Z,22.23
2019-06-27T04:37:13.566Z,22.27
2019-06-27T04:39:44.949Z,22.30
2019-06-27T04:42:16.491Z,22.36
2019-06-27T04:44:47.911Z,22.47
2019-06-27T04:47:19.502Z,22.57
2019-06-27T04:49:52.125Z,22.70
2019-06-27T04:52:23.894Z,23.01
2019-06-27T04:54:55.598Z,23.30
2019-06-27T04:57:27.026Z,23.50
2019-06-27T04:59:58.362Z,23.64
2019-06-27T05:02:31.034Z,23.80
2019-06-27T05:05:02.859Z,23.88
2019-06-27T05:07:34.390Z,23.98
2019-06-27T05:10:06.425Z,24.00
2019-06-27T05:12:37.869Z,24.02
2019-06-27T05:15:09.674Z,24.17
2019-06-27T05:17:41.081Z,24.19
2019-06-27T05:20:12.881Z,24.31
2019-06-27T05:22:44.176Z,24.46
2019-06-27T05:25:15.974Z,24.69
2019-06-27T05:27:47.500Z,24.81
2019-06-27T05:30:18.991Z,24.93
2019-06-27T05:32:50.353Z,24.95
2019-06-27T05:35:21.851Z,25.06
2019-06-27T05:37:53.272Z,25.19
2019-06-27T05:40:24.750Z,25.31
2019-06-27T05:42:56.290Z,25.31
2019-06-27T05:45:28.176Z,25.42
2019-06-27T05:47:59.699Z,25.44
2019-06-27T05:50:31.192Z,25.51
2019-06-27T05:53:02.500Z,25.70
2019-06-27T05:55:34.296Z,25.87
2019-06-27T05:58:05.851Z,25.94
2019-06-27T06:00:37.331Z,26.12
2019-06-27T06:03:08.765Z,26.34
2019-06-27T06:05:40.428Z,26.54
2019-06-27T06:08:11.887Z,26.57
2019-06-27T06:10:43.293Z,26.79
2019-06-27T06:13:14.767Z,27.03
2019-06-27T06:15:46.512Z,27.25
2019-06-27T06:18:17.990Z,27.48
2019-06-27T06:20:49.401Z,27.78
2019-06-27T06:23:20.838Z,28.03
2019-06-27T06:25:52.178Z,28.38
2019-06-27T06:28:23.533Z,28.52
2019-06-27T06:30:54.938Z,28.36
2019-06-27T06:33:26.594Z,28.09
2019-06-27T06:35:58.079Z,28.05
2019-06-27T06:38:29.615Z,28.33
2019-06-27T06:41:03.841Z,28.57
2019-06-27T06:43:35.387Z,28.79
2019-06-27T06:46:07.261Z,28.92
2019-06-27T06:48:38.794Z,28.91
2019-06-27T06:51:10.319Z,28.98
2019-06-27T06:53:41.701Z,28.87
2019-06-27T06:56:13.226Z,28.76
2019-06-27T06:58:44.686Z,28.94
2019-06-27T07:01:16.527Z,28.76
2019-06-27T07:03:47.939Z,28.89
2019-06-27T07:06:19.517Z,29.20
2019-06-27T07:08:51.335Z,29.12
2019-06-27T07:11:23.105Z,28.49
2019-06-27T07:13:54.660Z,28.37
2019-06-27T07:16:26.139Z,28.18
2019-06-27T07:18:57.655Z,28.92
2019-06-27T07:21:29.074Z,29.51
2019-06-27T07:24:01.203Z,30.10
2019-06-27T07:26:32.632Z,29.97
2019-06-27T07:29:04.135Z,30.05
2019-06-27T07:31:35.608Z,29.62
2019-06-27T07:34:07.054Z,29.43
2019-06-27T07:36:38.603Z,29.52
2019-06-27T07:39:10.125Z,29.89
2019-06-27T07:41:41.594Z,30.12
2019-06-27T07:44:14.005Z,29.86
2019-06-27T07:46:45.411Z,29.96
2019-06-27T07:49:17.032Z,29.68
2019-06-27T07:51:48.352Z,30.11
2019-06-27T07:54:19.814Z,30.20
2019-06-27T07:56:51.198Z,30.43
2019-06-27T07:59:22.590Z,30.85
2019-06-27T08:01:53.987Z,31.39
2019-06-27T08:04:25.457Z,30.65
2019-06-27T08:06:56.889Z,30.84
2019-06-27T08:09:28.171Z,31.35
2019-06-27T08:11:59.928Z,31.43
2019-06-27T08:14:31.412Z,31.89
2019-06-27T08:17:02.934Z,31.84
2019-06-27T08:19:34.318Z,31.46
2019-06-27T08:22:06.114Z,31.69
2019-06-27T08:24:37.599Z,31.80
2019-06-27T08:27:09.125Z,32.11
2019-06-27T08:29:40.563Z,32.36
2019-06-27T08:32:11.864Z,32.52
2019-06-27T08:34:43.374Z,32.57
2019-06-27T08:37:15.241Z,32.45
2019-06-27T08:39:46.779Z,32.50
2019-06-27T08:42:18.040Z,32.75
2019-06-27T08:44:49.584Z,32.72
2019-06-27T08:47:21.235Z,32.96
2019-06-27T08:49:52.777Z,32.57
2019-06-27T08:52:24.111Z,32.57
2019-06-27T08:54:55.454Z,32.58
2019-06-27T08:57:26.789Z,32.28
2019-06-27T08:59:58.213Z,32.67
2019-06-27T09:02:30.133Z,32.46
2019-06-27T09:05:01.717Z,32.65
2019-06-27T09:07:33.615Z,32.49
2019-06-27T09:10:05.311Z,32.51
2019-06-27T09:12:36.807Z,33.04
2019-06-27T09:15:09.130Z,32.46
2019-06-27T09:17:40.533Z,32.34
2019-06-27T09:20:12.794Z,33.02
2019-06-27T09:22:44.571Z,33.12
2019-06-27T09:25:16.318Z,33.04
2019-06-27T09:27:48.198Z,33.43
2019-06-27T09:30:20.614Z,33.86
2019-06-27T09:32:52.127Z,34.10
2019-06-27T09:35:23.729Z,34.26
2019-06-27T09:37:55.217Z,34.11
2019-06-27T09:40:27.036Z,34.30
2019-06-27T09:42:58.533Z,35.08
2019-06-27T09:45:30.127Z,35.38
2019-06-27T09:48:01.631Z,35.34
2019-06-27T09:50:33.127Z,34.93
2019-06-27T09:53:04.946Z,35.23
2019-06-27T09:55:36.475Z,35.33
2019-06-27T09:58:08.046Z,35.66
2019-06-27T10:00:39.792Z,35.35
2019-06-27T10:03:11.537Z,35.83
2019-06-27T10:05:43.067Z,34.70
2019-06-27T10:08:14.485Z,35.29
2019-06-27T10:10:45.961Z,35.52
2019-06-27T10:13:17.450Z,35.05
2019-06-27T10:15:48.801Z,35.49
2019-06-27T10:18:20.620Z,35.55
2019-06-27T10:20:52.109Z,36.16
2019-06-27T10:23:23.566Z,35.64
2019-06-27T10:25:55.113Z,35.53
2019-06-27T10:28:26.882Z,35.80
2019-06-27T10:31:00.373Z,36.31
2019-06-27T10:33:31.649Z,35.65
2019-06-27T10:36:03.094Z,35.31
2019-06-27T10:38:34.612Z,35.28
2019-06-27T10:41:06.117Z,35.89
2019-06-27T10:43:38.082Z,36.42
2019-06-27T10:46:09.761Z,36.40
2019-06-27T10:48:41.542Z,35.96
2019-06-27T10:51:13.025Z,35.03
2019-06-27T10:53:44.761Z,34.46
2019-06-27T10:56:16.171Z,35.22
2019-06-27T10:58:47.517Z,35.22
2019-06-27T11:01:18.949Z,36.00
2019-06-27T11:03:50.468Z,35.93
2019-06-27T11:06:21.891Z,36.49
2019-06-27T11:08:53.404Z,36.24
2019-06-27T11:11:25.886Z,35.68
2019-06-27T11:13:59.146Z,35.74
2019-06-27T11:16:30.323Z,35.59
2019-06-27T11:19:01.901Z,35.61
2019-06-27T11:21:34.392Z,36.03
2019-06-27T11:24:06.168Z,35.60
2019-06-27T11:26:37.514Z,35.43
2019-06-27T11:29:08.950Z,36.18
2019-06-27T11:31:40.561Z,36.30
2019-06-27T11:34:12.238Z,37.07
2019-06-27T11:36:46.542Z,36.96
2019-06-27T11:39:17.051Z,36.80
2019-06-27T11:41:48.543Z,35.99
2019-06-27T11:44:19.980Z,36.27
2019-06-27T11:46:51.547Z,36.95
2019-06-27T11:49:23.137Z,36.72
2019-06-27T11:51:54.662Z,36.58
2019-06-27T11:54:26.022Z,36.52
2019-06-27T11:56:57.504Z,36.65
2019-06-27T11:59:28.867Z,36.89
2019-06-27T12:02:00.407Z,36.88
2019-06-27T12:04:31.835Z,36.77
2019-06-27T12:07:03.312Z,37.02
2019-06-27T12:09:34.795Z,36.76
2019-06-27T12:12:06.378Z,36.98
2019-06-27T12:14:37.788Z,36.62
2019-06-27T12:17:10.367Z,37.08
2019-06-27T12:19:42.339Z,36.38
2019-06-27T12:22:14.100Z,36.37
2019-06-27T12:24:45.581Z,37.39
2019-06-27T12:27:17.066Z,37.16
2019-06-27T12:29:48.519Z,36.70
2019-06-27T12:32:20.056Z,36.58
2019-06-27T12:34:51.844Z,36.80
2019-06-27T12:37:23.375Z,35.81
2019-06-27T12:39:54.795Z,36.23
2019-06-27T12:42:32.304Z,37.13
2019-06-27T12:44:59.832Z,37.30
2019-06-27T12:47:31.320Z,36.81
2019-06-27T12:50:03.477Z,35.70
2019-06-27T12:52:35.434Z,35.62
2019-06-27T12:55:07.350Z,34.95
2019-06-27T12:57:38.968Z,34.23
2019-06-27T13:00:11.857Z,33.97
2019-06-27T13:02:43.365Z,34.87
2019-06-27T13:05:14.960Z,35.85
2019-06-27T13:07:46.355Z,36.37
2019-06-27T13:10:18.232Z,36.69
2019-06-27T13:12:50.016Z,35.10
2019-06-27T13:15:21.588Z,34.42
2019-06-27T13:17:53.121Z,34.96
2019-06-27T13:20:24.886Z,34.29
2019-06-27T13:22:56.285Z,33.55
2019-06-27T13:25:27.860Z,34.49
2019-06-27T13:27:59.657Z,35.49
2019-06-27T13:30:31.169Z,35.91
2019-06-27T13:33:03.084Z,34.93
2019-06-27T13:35:35.022Z,34.25
2019-06-27T13:38:06.501Z,35.29
2019-06-27T13:40:38.016Z,35.57
2019-06-27T13:43:09.484Z,34.19
2019-06-27T13:45:40.991Z,34.46
2019-06-27T13:48:12.469Z,35.48
2019-06-27T13:50:44.022Z,35.80
2019-06-27T13:53:15.981Z,36.07
2019-06-27T13:55:47.463Z,35.83
2019-06-27T13:58:19.203Z,35.93
2019-06-27T14:00:50.822Z,35.44
2019-06-27T14:03:22.434Z,36.00
2019-06-27T14:05:53.962Z,36.04
2019-06-27T14:08:26.406Z,35.29
2019-06-27T14:10:57.898Z,35.34
2019-06-27T14:13:29.195Z,35.81
2019-06-27T14:16:00.664Z,35.91
2019-06-27T14:18:32.055Z,35.97
2019-06-27T14:21:03.752Z,35.29
2019-06-27T14:23:35.157Z,34.74
2019-06-27T14:26:06.710Z,34.97
2019-06-27T14:28:38.525Z,35.43
2019-06-27T14:31:10.022Z,35.61
2019-06-27T14:33:41.423Z,35.28
2019-06-27T14:36:12.898Z,34.96
2019-06-27T14:38:44.226Z,35.34
2019-06-27T14:41:15.779Z,35.10
2019-06-27T14:43:47.208Z,34.91
2019-06-27T14:46:18.641Z,34.75
2019-06-27T14:48:50.067Z,35.36
2019-06-27T14:51:21.558Z,35.79
2019-06-27T14:53:53.018Z,35.29
2019-06-27T14:56:24.406Z,35.16
2019-06-27T14:58:55.874Z,34.97
2019-06-27T15:01:27.287Z,34.84
2019-06-27T15:03:58.697Z,34.90
2019-06-27T15:06:30.286Z,34.66
2019-06-27T15:09:02.727Z,35.23
2019-06-27T15:11:35.349Z,35.14
2019-06-27T15:14:06.833Z,35.03
2019-06-27T15:16:38.245Z,34.80
2019-06-27T15:19:09.646Z,34.70
2019-06-27T15:21:41.055Z,34.78
2019-06-27T15:24:12.611Z,34.84
2019-06-27T15:26:43.985Z,34.88
2019-06-27T15:29:15.358Z,35.14
2019-06-27T15:31:46.884Z,35.01
2019-06-27T15:34:18.344Z,34.75
2019-06-27T15:36:49.852Z,34.66
2019-06-27T15:39:21.404Z,34.72
2019-06-27T15:41:52.738Z,34.35
2019-06-27T15:44:24.232Z,34.31
2019-06-27T15:46:56.047Z,34.59
2019-06-27T15:49:30.132Z,34.46
2019-06-27T15:52:01.173Z,34.42
2019-06-27T15:54:32.831Z,34.40
2019-06-27T15:57:04.248Z,34.30
2019-06-27T15:59:35.742Z,34.34
2019-06-27T16:02:07.604Z,34.29
2019-06-27T16:04:38.978Z,34.08
2019-06-27T16:07:10.369Z,34.04
2019-06-27T16:09:41.819Z,34.01
2019-06-27T16:12:13.403Z,34.00
2019-06-27T16:14:44.903Z,33.93
2019-06-27T16:17:16.386Z,33.89
2019-06-27T16:19:47.872Z,33.73
2019-06-27T16:22:19.274Z,33.56
2019-06-27T16:24:50.789Z,33.49
2019-06-27T16:27:22.261Z,33.58
2019-06-27T16:29:53.635Z,33.33
2019-06-27T16:32:25.117Z,33.58
2019-06-27T16:34:56.556Z,33.61
2019-06-27T16:37:28.035Z,33.30
2019-06-27T16:39:59.468Z,33.12
2019-06-27T16:42:31.073Z,33.20
2019-06-27T16:45:03.481Z,32.94
2019-06-27T16:47:35.133Z,32.76
2019-06-27T16:50:07.487Z,33.08
2019-06-27T16:52:38.912Z,32.96
2019-06-27T16:55:11.307Z,32.85
2019-06-27T16:57:42.808Z,32.83
2019-06-27T17:00:15.597Z,32.60
2019-06-27T17:02:47.150Z,32.63
2019-06-27T17:05:18.614Z,32.68
2019-06-27T17:07:50.165Z,32.70
2019-06-27T17:10:21.759Z,32.44
2019-06-27T17:12:53.444Z,32.24
2019-06-27T17:15:25.132Z,31.71
2019-06-27T17:17:56.927Z,31.79
2019-06-27T17:20:28.406Z,31.73
2019-06-27T17:22:59.906Z,31.46
2019-06-27T17:25:31.469Z,31.46
2019-06-27T17:28:02.958Z,31.44
2019-06-27T17:30:34.375Z,31.42
2019-06-27T17:33:05.851Z,31.39
2019-06-27T17:35:37.266Z,31.21
2019-06-27T17:38:08.601Z,30.77
2019-06-27T17:40:40.126Z,30.68
2019-06-27T17:43:11.617Z,30.64
2019-06-27T17:45:44.110Z,30.80
2019-06-27T17:48:15.648Z,30.59
2019-06-27T17:50:47.300Z,30.24
2019-06-27T17:53:18.806Z,30.19
2019-06-27T17:55:50.140Z,30.03
2019-06-27T17:58:21.731Z,29.98
2019-06-27T18:00:53.258Z,29.94
2019-06-27T18:03:24.558Z,29.73
2019-06-27T18:05:56.156Z,29.52
2019-06-27T18:08:27.886Z,29.51
2019-06-27T18:10:59.361Z,29.55
2019-06-27T18:13:30.702Z,29.48
2019-06-27T18:16:02.117Z,29.25
2019-06-27T18:18:33.390Z,29.06
2019-06-27T18:21:05.046Z,28.90
2019-06-27T18:23:36.417Z,28.76
2019-06-27T18:26:07.915Z,28.86
2019-06-27T18:28:39.439Z,28.70
2019-06-27T18:31:10.917Z,28.56
2019-06-27T18:33:42.165Z,28.39
2019-06-27T18:36:13.618Z,28.39
2019-06-27T18:38:45.005Z,28.28
2019-06-27T18:41:16.505Z,28.24
2019-06-27T18:43:48.334Z,28.22
2019-06-27T18:46:19.857Z,28.01
2019-06-27T18:48:52.135Z,27.85
2019-06-27T18:51:24.164Z,27.65
2019-06-27T18:53:55.647Z,27.45
2019-06-27T18:56:27.120Z,27.07
2019-06-27T18:58:58.913Z,26.49
2019-06-27T19:01:30.357Z,26.01
2019-06-27T19:04:02.168Z,25.48
2019-06-27T19:06:33.644Z,25.12
2019-06-27T19:09:05.979Z,24.83
2019-06-27T19:11:38.225Z,24.54
2019-06-27T19:14:09.714Z,24.27
2019-06-27T19:16:41.119Z,24.04
2019-06-27T19:19:15.190Z,23.72
2019-06-27T19:22:24.639Z,23.54
2019-06-27T19:25:09.885Z,23.23
2019-06-27T19:27:42.444Z,23.15
2019-06-27T19:30:13.853Z,23.08
2019-06-27T19:32:45.413Z,23.06
2019-06-27T19:35:16.824Z,22.93
2019-06-27T19:38:01.358Z,22.73
2019-06-27T19:40:41.447Z,22.56
2019-06-27T19:43:26.600Z,22.41
2019-06-27T19:45:46.339Z,22.28
2019-06-27T19:48:21.257Z,22.38
2019-06-27T19:50:51.706Z,22.78
2019-06-27T19:53:23.134Z,22.79
2019-06-27T19:55:55.362Z,22.59
2019-06-27T19:58:27.369Z,22.59
2019-06-27T20:00:59.870Z,22.73
2019-06-27T20:03:31.254Z,23.22
2019-06-27T20:06:02.978Z,23.71
2019-06-27T20:08:34.463Z,24.15
2019-06-27T20:11:05.952Z,24.24
2019-06-27T20:13:38.548Z,24.08
2019-06-27T20:16:10.176Z,23.52
2019-06-27T20:18:41.675Z,22.85
2019-06-27T20:21:13.615Z,22.23
2019-06-27T20:23:45.083Z,21.83
2019-06-27T20:26:16.550Z,21.65
2019-06-27T20:28:49.016Z,21.44
2019-06-27T20:31:20.929Z,21.30
2019-06-27T20:33:53.686Z,21.11
2019-06-27T20:36:25.200Z,20.94
2019-06-27T20:38:56.690Z,20.89
2019-06-27T20:41:29.432Z,20.87
2019-06-27T20:44:00.988Z,20.84
2019-06-27T20:46:33.227Z,21.01
2019-06-27T20:49:05.122Z,21.30
2019-06-27T20:51:36.584Z,21.60
2019-06-27T20:54:11.981Z,21.69
2019-06-27T20:56:41.615Z,21.51
2019-06-27T20:59:13.138Z,21.44
2019-06-27T21:01:44.536Z,21.60
2019-06-27T21:04:16.008Z,21.76
2019-06-27T21:06:47.639Z,21.86
2019-06-27T21:09:19.230Z,22.10
2019-06-27T21:11:52.131Z,22.22
2019-06-27T21:14:24.039Z,22.00
2019-06-27T21:16:55.645Z,21.61
2019-06-27T21:19:27.438Z,21.17
2019-06-27T21:21:59.101Z,20.03
2019-06-27T21:24:30.637Z,19.03
2019-06-27T21:27:02.979Z,18.17
2019-06-27T21:29:34.477Z,17.65
2019-06-27T21:32:06.028Z,17.36
2019-06-27T21:34:37.494Z,17.17
2019-06-27T21:37:08.972Z,17.18
2019-06-27T21:39:40.956Z,17.25
2019-06-27T21:42:12.479Z,16.99
2019-06-27T21:44:44.136Z,16.87
2019-06-27T21:47:15.539Z,16.82
2019-06-27T21:49:46.949Z,17.03
2019-06-27T21:52:18.439Z,17.40
2019-06-27T21:54:49.760Z,17.68
2019-06-27T21:57:21.231Z,18.05
2019-06-27T21:59:52.545Z,18.19
2019-06-27T22:02:24.036Z,18.16
2019-06-27T22:04:55.563Z,18.24
2019-06-27T22:07:27.093Z,18.24
2019-06-27T22:09:58.755Z,18.13
2019-06-27T22:12:34.596Z,17.96
2019-06-27T22:15:07.373Z,17.76
2019-06-27T22:17:38.973Z,17.66
2019-06-27T22:20:15.700Z,17.63
2019-06-27T22:22:44.666Z,17.48
2019-06-27T22:25:16.511Z,17.31
2019-06-27T22:27:48.023Z,17.27
2019-06-27T22:30:21.382Z,17.29
2019-06-27T22:32:52.887Z,17.34
2019-06-27T22:35:24.340Z,17.46
2019-06-27T22:38:13.371Z,17.64
2019-06-27T22:41:02.649Z,18.23
2019-06-27T22:43:51.710Z,18.23
2019-06-27T22:46:40.704Z,18.32
2019-06-27T22:49:15.173Z,18.18
2019-06-27T22:52:11.456Z,17.99
2019-06-27T22:54:44.465Z,17.86
2019-06-27T22:57:15.830Z,17.65
2019-06-27T22:59:47.282Z,17.50
2019-06-27T23:02:18.751Z,17.31
2019-06-27T23:04:50.490Z,17.35
2019-06-27T23:07:22.205Z,17.13
2019-06-27T23:09:57.238Z,16.87
2019-06-27T23:12:27.834Z,16.68
2019-06-27T23:14:59.157Z,16.59
2019-06-27T23:17:30.624Z,16.55
2019-06-27T23:20:02.147Z,16.49
2019-06-27T23:22:33.550Z,16.60
2019-06-27T23:25:05.060Z,16.61
2019-06-27T23:27:36.369Z,16.64
2019-06-27T23:30:08.071Z,16.91
2019-06-27T23:32:39.465Z,17.24
2019-06-27T23:35:11.044Z,17.33
2019-06-27T23:37:42.285Z,17.37
2019-06-27T23:40:15.135Z,17.13
2019-06-27T23:42:46.985Z,16.76
2019-06-27T23:45:18.943Z,16.48
2019-06-27T23:47:50.468Z,16.32
2019-06-27T23:50:22.286Z,16.61
2019-06-27T23:52:54.104Z,17.03
2019-06-27T23:55:25.612Z,16.89
2019-06-27T23:57:57.009Z,16.61
